sensor_id;sensor_type;location;lat;lon;timestamp;P1;durP1;ratioP1;P2;durP2;ratioP2
2622;SDS011;1321;48.690;9.022;2023-07-29T00:00:16;13.90;;;13.27;;
2622;SDS011;1321;48.690;9.022;2023-07-29T00:02:46;13.47;;;13.10;;
2622;SDS011;1321;48.690;9.022;2023-07-29T00:05:14;13.67;;;13.27;;
2622;SDS011;1321;48.690;9.022;2023-07-29T00:07:44;13.77;;;13.37;;
2622;SDS011;1321;48.690;9.022;2023-07-29T00:10:12;13.53;;;13.03;;
2622;SDS011;1321;48.690;9.022;2023-07-29T00:12:40;14.13;;;13.60;;
2622;SDS011;1321;48.690;9.022;2023-07-29T00:15:09;13.23;;;12.83;;
2622;SDS011;1321;48.690;9.022;2023-07-29T00:17:37;14.20;;;13.70;;
2622;SDS011;1321;48.690;9.022;2023-07-29T00:20:06;13.67;;;13.27;;
2622;SDS011;1321;48.690;9.022;2023-07-29T00:22:35;13.90;;;13.50;;
2622;SDS011;1321;48.690;9.022;2023-07-29T00:25:05;13.90;;;13.50;;
2622;SDS011;1321;48.690;9.022;2023-07-29T00:27:33;14.83;;;13.93;;
2622;SDS011;1321;48.690;9.022;2023-07-29T00:30:02;14.20;;;13.80;;
2622;SDS011;1321;48.690;9.022;2023-07-29T00:32:31;13.70;;;13.30;;
2622;SDS011;1321;48.690;9.022;2023-07-29T00:34:59;13.90;;;13.50;;
2622;SDS011;1321;48.690;9.022;2023-07-29T00:37:27;13.90;;;13.50;;
2622;SDS011;1321;48.690;9.022;2023-07-29T00:39:56;14.00;;;13.60;;
2622;SDS011;1321;48.690;9.022;2023-07-29T00:42:26;14.00;;;13.60;;
2622;SDS011;1321;48.690;9.022;2023-07-29T00:44:54;13.47;;;13.17;;
2622;SDS011;1321;48.690;9.022;2023-07-29T00:47:22;14.50;;;13.93;;
2622;SDS011;1321;48.690;9.022;2023-07-29T00:49:53;13.60;;;13.20;;
2622;SDS011;1321;48.690;9.022;2023-07-29T00:52:21;13.80;;;13.40;;
2622;SDS011;1321;48.690;9.022;2023-07-29T00:54:49;13.60;;;13.20;;
2622;SDS011;1321;48.690;9.022;2023-07-29T00:57:17;14.53;;;14.03;;
2622;SDS011;1321;48.690;9.022;2023-07-29T00:59:49;13.20;;;12.90;;
2622;SDS011;1321;48.690;9.022;2023-07-29T01:02:18;13.47;;;13.07;;
2622;SDS011;1321;48.690;9.022;2023-07-29T01:04:49;13.50;;;13.10;;
2622;SDS011;1321;48.690;9.022;2023-07-29T01:07:21;13.70;;;13.30;;
2622;SDS011;1321;48.690;9.022;2023-07-29T01:09:55;13.47;;;13.07;;
2622;SDS011;1321;48.690;9.022;2023-07-29T01:12:31;13.90;;;13.50;;
2622;SDS011;1321;48.690;9.022;2023-07-29T01:15:07;13.50;;;13.10;;
2622;SDS011;1321;48.690;9.022;2023-07-29T01:17:42;13.33;;;13.03;;
2622;SDS011;1321;48.690;9.022;2023-07-29T01:20:14;13.77;;;13.27;;
2622;SDS011;1321;48.690;9.022;2023-07-29T01:22:43;13.77;;;13.30;;
2622;SDS011;1321;48.690;9.022;2023-07-29T01:25:13;13.67;;;13.17;;
2622;SDS011;1321;48.690;9.022;2023-07-29T01:27:41;13.60;;;13.10;;
2622;SDS011;1321;48.690;9.022;2023-07-29T01:30:10;13.77;;;13.27;;
2622;SDS011;1321;48.690;9.022;2023-07-29T01:32:51;13.73;;;13.30;;
2622;SDS011;1321;48.690;9.022;2023-07-29T01:35:23;13.77;;;13.37;;
2622;SDS011;1321;48.690;9.022;2023-07-29T01:37:58;13.60;;;13.20;;
2622;SDS011;1321;48.690;9.022;2023-07-29T01:40:32;13.70;;;13.30;;
2622;SDS011;1321;48.690;9.022;2023-07-29T01:43:01;13.80;;;13.30;;
2622;SDS011;1321;48.690;9.022;2023-07-29T01:45:29;13.63;;;13.23;;
2622;SDS011;1321;48.690;9.022;2023-07-29T01:48:02;13.60;;;13.20;;
2622;SDS011;1321;48.690;9.022;2023-07-29T01:50:30;13.57;;;13.07;;
2622;SDS011;1321;48.690;9.022;2023-07-29T01:52:58;14.20;;;13.60;;
2622;SDS011;1321;48.690;9.022;2023-07-29T01:55:27;13.17;;;12.77;;
2622;SDS011;1321;48.690;9.022;2023-07-29T01:57:56;13.50;;;13.10;;
2622;SDS011;1321;48.690;9.022;2023-07-29T02:00:24;13.60;;;13.20;;
2622;SDS011;1321;48.690;9.022;2023-07-29T02:02:52;13.87;;;13.47;;
2622;SDS011;1321;48.690;9.022;2023-07-29T02:05:21;13.80;;;13.40;;
2622;SDS011;1321;48.690;9.022;2023-07-29T02:07:49;13.83;;;13.43;;
2622;SDS011;1321;48.690;9.022;2023-07-29T02:10:17;13.93;;;13.53;;
2622;SDS011;1321;48.690;9.022;2023-07-29T02:12:45;14.20;;;13.60;;
2622;SDS011;1321;48.690;9.022;2023-07-29T02:15:15;13.77;;;13.37;;
2622;SDS011;1321;48.690;9.022;2023-07-29T02:17:43;14.80;;;14.30;;
2622;SDS011;1321;48.690;9.022;2023-07-29T02:20:11;14.03;;;13.53;;
2622;SDS011;1321;48.690;9.022;2023-07-29T02:22:39;13.93;;;13.53;;
2622;SDS011;1321;48.690;9.022;2023-07-29T02:25:08;14.20;;;13.70;;
2622;SDS011;1321;48.690;9.022;2023-07-29T02:27:36;14.43;;;13.80;;
2622;SDS011;1321;48.690;9.022;2023-07-29T02:30:05;14.27;;;13.63;;
2622;SDS011;1321;48.690;9.022;2023-07-29T02:32:37;14.43;;;13.93;;
2622;SDS011;1321;48.690;9.022;2023-07-29T02:35:06;13.97;;;13.57;;
2622;SDS011;1321;48.690;9.022;2023-07-29T02:37:34;14.27;;;13.87;;
2622;SDS011;1321;48.690;9.022;2023-07-29T02:40:03;14.37;;;13.90;;
2622;SDS011;1321;48.690;9.022;2023-07-29T02:42:32;14.10;;;13.63;;
2622;SDS011;1321;48.690;9.022;2023-07-29T02:45:00;14.33;;;13.83;;
2622;SDS011;1321;48.690;9.022;2023-07-29T02:47:28;13.83;;;13.43;;
2622;SDS011;1321;48.690;9.022;2023-07-29T02:49:58;14.13;;;13.63;;
2622;SDS011;1321;48.690;9.022;2023-07-29T02:52:26;14.30;;;13.70;;
2622;SDS011;1321;48.690;9.022;2023-07-29T02:54:54;13.80;;;13.40;;
2622;SDS011;1321;48.690;9.022;2023-07-29T02:57:22;14.10;;;13.70;;
2622;SDS011;1321;48.690;9.022;2023-07-29T02:59:51;14.70;;;14.20;;
2622;SDS011;1321;48.690;9.022;2023-07-29T03:02:19;14.53;;;14.07;;
2622;SDS011;1321;48.690;9.022;2023-07-29T03:04:47;14.07;;;13.67;;
2622;SDS011;1321;48.690;9.022;2023-07-29T03:07:17;14.27;;;13.77;;
2622;SDS011;1321;48.690;9.022;2023-07-29T03:09:46;13.93;;;13.53;;
2622;SDS011;1321;48.690;9.022;2023-07-29T03:12:14;14.37;;;13.90;;
2622;SDS011;1321;48.690;9.022;2023-07-29T03:14:42;15.20;;;14.40;;
2622;SDS011;1321;48.690;9.022;2023-07-29T03:17:10;14.27;;;13.80;;
2622;SDS011;1321;48.690;9.022;2023-07-29T03:19:39;14.60;;;14.10;;
2622;SDS011;1321;48.690;9.022;2023-07-29T03:22:07;14.83;;;14.33;;
2622;SDS011;1321;48.690;9.022;2023-07-29T03:24:36;14.20;;;13.70;;
2622;SDS011;1321;48.690;9.022;2023-07-29T03:27:04;14.90;;;14.20;;
2622;SDS011;1321;48.690;9.022;2023-07-29T03:29:33;14.67;;;14.10;;
2622;SDS011;1321;48.690;9.022;2023-07-29T03:32:01;14.40;;;14.00;;
2622;SDS011;1321;48.690;9.022;2023-07-29T03:34:29;14.10;;;13.70;;
2622;SDS011;1321;48.690;9.022;2023-07-29T03:36:58;14.70;;;14.20;;
2622;SDS011;1321;48.690;9.022;2023-07-29T03:39:27;14.60;;;14.10;;
2622;SDS011;1321;48.690;9.022;2023-07-29T03:41:56;14.90;;;14.30;;
2622;SDS011;1321;48.690;9.022;2023-07-29T03:44:25;14.90;;;14.40;;
2622;SDS011;1321;48.690;9.022;2023-07-29T03:46:53;14.83;;;14.13;;
2622;SDS011;1321;48.690;9.022;2023-07-29T03:49:21;14.60;;;14.10;;
2622;SDS011;1321;48.690;9.022;2023-07-29T03:51:49;14.40;;;13.97;;
2622;SDS011;1321;48.690;9.022;2023-07-29T03:54:17;14.77;;;14.27;;
2622;SDS011;1321;48.690;9.022;2023-07-29T03:56:45;14.57;;;14.07;;
2622;SDS011;1321;48.690;9.022;2023-07-29T03:59:15;14.57;;;14.00;;
2622;SDS011;1321;48.690;9.022;2023-07-29T04:01:43;14.83;;;14.33;;
2622;SDS011;1321;48.690;9.022;2023-07-29T04:04:11;14.47;;;14.00;;
2622;SDS011;1321;48.690;9.022;2023-07-29T04:06:40;15.00;;;14.40;;
2622;SDS011;1321;48.690;9.022;2023-07-29T04:09:08;14.67;;;14.20;;
2622;SDS011;1321;48.690;9.022;2023-07-29T04:11:36;15.00;;;14.50;;
2622;SDS011;1321;48.690;9.022;2023-07-29T04:14:04;15.27;;;14.57;;
2622;SDS011;1321;48.690;9.022;2023-07-29T04:16:34;15.00;;;14.43;;
2622;SDS011;1321;48.690;9.022;2023-07-29T04:19:02;14.77;;;14.17;;
2622;SDS011;1321;48.690;9.022;2023-07-29T04:21:30;14.90;;;14.27;;
2622;SDS011;1321;48.690;9.022;2023-07-29T04:23:59;14.77;;;14.27;;
2622;SDS011;1321;48.690;9.022;2023-07-29T04:26:27;14.60;;;14.10;;
2622;SDS011;1321;48.690;9.022;2023-07-29T04:28:55;14.67;;;14.20;;
2622;SDS011;1321;48.690;9.022;2023-07-29T04:31:24;15.37;;;14.70;;
2622;SDS011;1321;48.690;9.022;2023-07-29T04:33:54;14.90;;;14.30;;
2622;SDS011;1321;48.690;9.022;2023-07-29T04:36:22;15.63;;;14.90;;
2622;SDS011;1321;48.690;9.022;2023-07-29T04:38:50;15.17;;;14.50;;
2622;SDS011;1321;48.690;9.022;2023-07-29T04:41:19;14.33;;;13.77;;
2622;SDS011;1321;48.690;9.022;2023-07-29T04:43:47;15.53;;;14.83;;
2622;SDS011;1321;48.690;9.022;2023-07-29T04:46:15;15.30;;;14.80;;
2622;SDS011;1321;48.690;9.022;2023-07-29T04:48:44;15.10;;;14.43;;
2622;SDS011;1321;48.690;9.022;2023-07-29T04:51:13;15.23;;;14.70;;
2622;SDS011;1321;48.690;9.022;2023-07-29T04:53:42;15.30;;;14.60;;
2622;SDS011;1321;48.690;9.022;2023-07-29T04:56:10;15.10;;;14.57;;
2622;SDS011;1321;48.690;9.022;2023-07-29T04:58:40;15.30;;;14.70;;
2622;SDS011;1321;48.690;9.022;2023-07-29T05:01:09;15.37;;;14.73;;
2622;SDS011;1321;48.690;9.022;2023-07-29T05:03:37;15.30;;;14.70;;
2622;SDS011;1321;48.690;9.022;2023-07-29T05:06:06;15.80;;;15.20;;
2622;SDS011;1321;48.690;9.022;2023-07-29T05:08:36;15.47;;;14.97;;
2622;SDS011;1321;48.690;9.022;2023-07-29T05:11:04;15.63;;;15.03;;
2622;SDS011;1321;48.690;9.022;2023-07-29T05:13:32;15.70;;;15.00;;
2622;SDS011;1321;48.690;9.022;2023-07-29T05:16:00;15.60;;;14.90;;
2622;SDS011;1321;48.690;9.022;2023-07-29T05:18:28;15.70;;;15.10;;
2622;SDS011;1321;48.690;9.022;2023-07-29T05:20:57;15.30;;;14.63;;
2622;SDS011;1321;48.690;9.022;2023-07-29T05:23:25;15.33;;;14.70;;
2622;SDS011;1321;48.690;9.022;2023-07-29T05:25:54;15.33;;;14.73;;
2622;SDS011;1321;48.690;9.022;2023-07-29T05:28:22;15.07;;;14.57;;
2622;SDS011;1321;48.690;9.022;2023-07-29T05:30:51;14.80;;;14.20;;
2622;SDS011;1321;48.690;9.022;2023-07-29T05:33:19;14.93;;;14.43;;
2622;SDS011;1321;48.690;9.022;2023-07-29T05:35:47;15.60;;;15.10;;
2622;SDS011;1321;48.690;9.022;2023-07-29T05:38:16;15.20;;;14.67;;
2622;SDS011;1321;48.690;9.022;2023-07-29T05:40:44;15.90;;;15.10;;
2622;SDS011;1321;48.690;9.022;2023-07-29T05:43:14;14.90;;;14.30;;
2622;SDS011;1321;48.690;9.022;2023-07-29T05:45:42;15.20;;;14.63;;
2622;SDS011;1321;48.690;9.022;2023-07-29T05:48:10;15.43;;;14.83;;
2622;SDS011;1321;48.690;9.022;2023-07-29T05:50:38;15.63;;;15.13;;
2622;SDS011;1321;48.690;9.022;2023-07-29T05:53:06;15.80;;;15.30;;
2622;SDS011;1321;48.690;9.022;2023-07-29T05:55:35;15.50;;;14.90;;
2622;SDS011;1321;48.690;9.022;2023-07-29T05:58:03;14.63;;;14.13;;
2622;SDS011;1321;48.690;9.022;2023-07-29T06:00:32;15.20;;;14.60;;
2622;SDS011;1321;48.690;9.022;2023-07-29T06:03:01;14.80;;;14.40;;
2622;SDS011;1321;48.690;9.022;2023-07-29T06:05:29;15.00;;;14.50;;
2622;SDS011;1321;48.690;9.022;2023-07-29T06:07:57;15.40;;;14.90;;
2622;SDS011;1321;48.690;9.022;2023-07-29T06:10:25;15.30;;;14.70;;
2622;SDS011;1321;48.690;9.022;2023-07-29T06:12:54;15.57;;;14.97;;
2622;SDS011;1321;48.690;9.022;2023-07-29T06:15:22;15.10;;;14.60;;
2622;SDS011;1321;48.690;9.022;2023-07-29T06:17:51;14.90;;;14.43;;
2622;SDS011;1321;48.690;9.022;2023-07-29T06:20:22;15.80;;;15.20;;
2622;SDS011;1321;48.690;9.022;2023-07-29T06:22:51;15.57;;;14.97;;
2622;SDS011;1321;48.690;9.022;2023-07-29T06:25:19;15.40;;;14.63;;
2622;SDS011;1321;48.690;9.022;2023-07-29T06:27:49;14.87;;;14.37;;
2622;SDS011;1321;48.690;9.022;2023-07-29T06:30:17;15.00;;;14.40;;
2622;SDS011;1321;48.690;9.022;2023-07-29T06:32:45;15.20;;;14.70;;
2622;SDS011;1321;48.690;9.022;2023-07-29T06:35:15;15.30;;;14.80;;
2622;SDS011;1321;48.690;9.022;2023-07-29T06:37:43;16.07;;;15.37;;
2622;SDS011;1321;48.690;9.022;2023-07-29T06:40:11;15.67;;;14.97;;
2622;SDS011;1321;48.690;9.022;2023-07-29T06:42:40;15.23;;;14.73;;
2622;SDS011;1321;48.690;9.022;2023-07-29T06:45:08;15.40;;;14.87;;
2622;SDS011;1321;48.690;9.022;2023-07-29T06:47:38;15.33;;;14.77;;
2622;SDS011;1321;48.690;9.022;2023-07-29T06:50:07;15.13;;;14.63;;
2622;SDS011;1321;48.690;9.022;2023-07-29T06:52:37;14.80;;;14.40;;
2622;SDS011;1321;48.690;9.022;2023-07-29T06:55:07;15.63;;;15.00;;
2622;SDS011;1321;48.690;9.022;2023-07-29T06:57:35;15.73;;;15.03;;
2622;SDS011;1321;48.690;9.022;2023-07-29T07:00:04;15.40;;;14.90;;
2622;SDS011;1321;48.690;9.022;2023-07-29T07:02:34;15.37;;;14.83;;
2622;SDS011;1321;48.690;9.022;2023-07-29T07:05:02;14.57;;;14.17;;
2622;SDS011;1321;48.690;9.022;2023-07-29T07:07:31;15.90;;;15.30;;
2622;SDS011;1321;48.690;9.022;2023-07-29T07:10:00;15.17;;;14.67;;
2622;SDS011;1321;48.690;9.022;2023-07-29T07:12:29;14.93;;;14.43;;
2622;SDS011;1321;48.690;9.022;2023-07-29T07:14:57;15.20;;;14.70;;
2622;SDS011;1321;48.690;9.022;2023-07-29T07:17:25;15.03;;;14.53;;
2622;SDS011;1321;48.690;9.022;2023-07-29T07:19:53;15.10;;;14.60;;
2622;SDS011;1321;48.690;9.022;2023-07-29T07:22:21;15.40;;;14.80;;
2622;SDS011;1321;48.690;9.022;2023-07-29T07:24:50;14.80;;;14.40;;
2622;SDS011;1321;48.690;9.022;2023-07-29T07:27:19;15.20;;;14.60;;
2622;SDS011;1321;48.690;9.022;2023-07-29T07:29:47;15.03;;;14.53;;
2622;SDS011;1321;48.690;9.022;2023-07-29T07:32:16;14.87;;;14.33;;
2622;SDS011;1321;48.690;9.022;2023-07-29T07:34:44;15.10;;;14.40;;
2622;SDS011;1321;48.690;9.022;2023-07-29T07:37:12;15.17;;;14.60;;
2622;SDS011;1321;48.690;9.022;2023-07-29T07:39:40;15.00;;;14.50;;
2622;SDS011;1321;48.690;9.022;2023-07-29T07:42:08;15.10;;;14.60;;
2622;SDS011;1321;48.690;9.022;2023-07-29T07:44:38;14.60;;;14.20;;
2622;SDS011;1321;48.690;9.022;2023-07-29T07:47:06;14.70;;;14.20;;
2622;SDS011;1321;48.690;9.022;2023-07-29T07:49:34;15.33;;;14.70;;
2622;SDS011;1321;48.690;9.022;2023-07-29T07:52:03;14.60;;;14.10;;
2622;SDS011;1321;48.690;9.022;2023-07-29T07:54:31;14.97;;;14.43;;
2622;SDS011;1321;48.690;9.022;2023-07-29T07:56:59;14.77;;;14.27;;
2622;SDS011;1321;48.690;9.022;2023-07-29T07:59:28;14.20;;;13.80;;
2622;SDS011;1321;48.690;9.022;2023-07-29T08:01:57;14.60;;;14.20;;
2622;SDS011;1321;48.690;9.022;2023-07-29T08:04:25;15.00;;;14.30;;
2622;SDS011;1321;48.690;9.022;2023-07-29T08:06:54;14.30;;;13.90;;
2622;SDS011;1321;48.690;9.022;2023-07-29T08:09:22;14.93;;;14.30;;
2622;SDS011;1321;48.690;9.022;2023-07-29T08:11:50;14.80;;;14.30;;
2622;SDS011;1321;48.690;9.022;2023-07-29T08:14:18;14.67;;;14.17;;
2622;SDS011;1321;48.690;9.022;2023-07-29T08:16:46;14.40;;;14.00;;
2622;SDS011;1321;48.690;9.022;2023-07-29T08:19:16;14.27;;;13.80;;
2622;SDS011;1321;48.690;9.022;2023-07-29T08:21:47;14.93;;;14.50;;
2622;SDS011;1321;48.690;9.022;2023-07-29T08:24:15;14.97;;;14.47;;
2622;SDS011;1321;48.690;9.022;2023-07-29T08:26:44;14.90;;;14.40;;
2622;SDS011;1321;48.690;9.022;2023-07-29T08:32:41;16.17;;;15.67;;
2622;SDS011;1321;48.690;9.022;2023-07-29T08:39:37;16.50;;;15.90;;
2622;SDS011;1321;48.690;9.022;2023-07-29T08:42:15;16.27;;;15.73;;
2622;SDS011;1321;48.690;9.022;2023-07-29T08:44:46;16.00;;;15.53;;
2622;SDS011;1321;48.690;9.022;2023-07-29T08:47:16;15.83;;;15.23;;
2622;SDS011;1321;48.690;9.022;2023-07-29T08:49:46;16.30;;;15.73;;
2622;SDS011;1321;48.690;9.022;2023-07-29T08:52:14;16.57;;;16.00;;
2622;SDS011;1321;48.690;9.022;2023-07-29T08:54:45;16.33;;;15.83;;
2622;SDS011;1321;48.690;9.022;2023-07-29T08:57:14;16.60;;;16.00;;
2622;SDS011;1321;48.690;9.022;2023-07-29T08:59:43;16.77;;;16.17;;
2622;SDS011;1321;48.690;9.022;2023-07-29T09:02:11;16.70;;;16.10;;
2622;SDS011;1321;48.690;9.022;2023-07-29T09:04:40;16.57;;;16.07;;
2622;SDS011;1321;48.690;9.022;2023-07-29T09:07:08;16.90;;;16.40;;
2622;SDS011;1321;48.690;9.022;2023-07-29T09:09:37;16.67;;;16.17;;
2622;SDS011;1321;48.690;9.022;2023-07-29T09:12:07;16.70;;;16.20;;
2622;SDS011;1321;48.690;9.022;2023-07-29T09:14:37;16.10;;;15.60;;
2622;SDS011;1321;48.690;9.022;2023-07-29T09:17:06;16.23;;;15.73;;
2622;SDS011;1321;48.690;9.022;2023-07-29T09:19:38;16.70;;;16.10;;
2622;SDS011;1321;48.690;9.022;2023-07-29T09:22:09;16.80;;;16.30;;
2622;SDS011;1321;48.690;9.022;2023-07-29T09:24:45;17.17;;;16.57;;
2622;SDS011;1321;48.690;9.022;2023-07-29T09:27:24;17.80;;;17.10;;
2622;SDS011;1321;48.690;9.022;2023-07-29T09:29:53;17.20;;;16.60;;
2622;SDS011;1321;48.690;9.022;2023-07-29T09:32:23;17.10;;;16.50;;
2622;SDS011;1321;48.690;9.022;2023-07-29T09:34:52;17.17;;;16.57;;
2622;SDS011;1321;48.690;9.022;2023-07-29T09:37:21;17.40;;;16.80;;
2622;SDS011;1321;48.690;9.022;2023-07-29T09:39:50;17.10;;;16.50;;
2622;SDS011;1321;48.690;9.022;2023-07-29T09:42:19;16.80;;;16.20;;
2622;SDS011;1321;48.690;9.022;2023-07-29T09:44:50;17.27;;;16.60;;
2622;SDS011;1321;48.690;9.022;2023-07-29T09:47:20;16.83;;;16.33;;
2622;SDS011;1321;48.690;9.022;2023-07-29T09:49:49;17.53;;;16.93;;
2622;SDS011;1321;48.690;9.022;2023-07-29T09:52:18;17.23;;;16.73;;
2622;SDS011;1321;48.690;9.022;2023-07-29T09:54:47;16.80;;;16.20;;
2622;SDS011;1321;48.690;9.022;2023-07-29T09:57:16;17.07;;;16.47;;
2622;SDS011;1321;48.690;9.022;2023-07-29T09:59:54;17.60;;;17.00;;
2622;SDS011;1321;48.690;9.022;2023-07-29T10:05:19;17.53;;;16.93;;
2622;SDS011;1321;48.690;9.022;2023-07-29T10:10:35;17.80;;;17.10;;
2622;SDS011;1321;48.690;9.022;2023-07-29T10:26:23;18.77;;;18.07;;
2622;SDS011;1321;48.690;9.022;2023-07-29T10:41:03;18.23;;;17.63;;
2622;SDS011;1321;48.690;9.022;2023-07-29T10:43:32;18.20;;;17.53;;
2622;SDS011;1321;48.690;9.022;2023-07-29T10:46:14;17.67;;;17.07;;
2622;SDS011;1321;48.690;9.022;2023-07-29T10:48:44;17.73;;;17.10;;
2622;SDS011;1321;48.690;9.022;2023-07-29T10:51:27;17.37;;;16.70;;
2622;SDS011;1321;48.690;9.022;2023-07-29T10:54:02;17.90;;;17.30;;
2622;SDS011;1321;48.690;9.022;2023-07-29T10:56:35;17.87;;;17.27;;
2622;SDS011;1321;48.690;9.022;2023-07-29T10:59:22;17.87;;;17.27;;
2622;SDS011;1321;48.690;9.022;2023-07-29T11:02:00;18.33;;;17.43;;
2622;SDS011;1321;48.690;9.022;2023-07-29T11:04:29;17.30;;;16.70;;
2622;SDS011;1321;48.690;9.022;2023-07-29T11:10:00;17.30;;;16.70;;
2622;SDS011;1321;48.690;9.022;2023-07-29T11:12:36;17.87;;;17.27;;
2622;SDS011;1321;48.690;9.022;2023-07-29T11:15:04;17.90;;;17.30;;
2622;SDS011;1321;48.690;9.022;2023-07-29T11:17:53;17.13;;;16.63;;
2622;SDS011;1321;48.690;9.022;2023-07-29T11:20:26;17.53;;;16.97;;
2622;SDS011;1321;48.690;9.022;2023-07-29T11:23:00;17.40;;;16.80;;
2622;SDS011;1321;48.690;9.022;2023-07-29T11:25:31;17.90;;;17.30;;
2622;SDS011;1321;48.690;9.022;2023-07-29T11:28:03;17.43;;;16.93;;
2622;SDS011;1321;48.690;9.022;2023-07-29T11:30:32;18.03;;;17.33;;
2622;SDS011;1321;48.690;9.022;2023-07-29T11:33:23;17.97;;;17.27;;
2622;SDS011;1321;48.690;9.022;2023-07-29T11:35:52;17.80;;;17.20;;
2622;SDS011;1321;48.690;9.022;2023-07-29T11:38:22;17.53;;;16.93;;
2622;SDS011;1321;48.690;9.022;2023-07-29T11:40:58;17.23;;;16.63;;
2622;SDS011;1321;48.690;9.022;2023-07-29T11:43:43;17.07;;;16.53;;
2622;SDS011;1321;48.690;9.022;2023-07-29T11:46:11;16.90;;;16.30;;
2622;SDS011;1321;48.690;9.022;2023-07-29T11:48:47;17.00;;;16.50;;
2622;SDS011;1321;48.690;9.022;2023-07-29T11:51:16;17.23;;;16.63;;
2622;SDS011;1321;48.690;9.022;2023-07-29T11:53:45;17.70;;;17.10;;
2622;SDS011;1321;48.690;9.022;2023-07-29T11:56:13;17.20;;;16.60;;
2622;SDS011;1321;48.690;9.022;2023-07-29T11:58:49;17.33;;;16.73;;
2622;SDS011;1321;48.690;9.022;2023-07-29T12:01:20;16.50;;;16.00;;
2622;SDS011;1321;48.690;9.022;2023-07-29T12:03:50;16.80;;;16.10;;
2622;SDS011;1321;48.690;9.022;2023-07-29T12:06:23;17.40;;;16.80;;
2622;SDS011;1321;48.690;9.022;2023-07-29T12:08:55;17.13;;;16.57;;
2622;SDS011;1321;48.690;9.022;2023-07-29T12:11:26;17.10;;;16.50;;
2622;SDS011;1321;48.690;9.022;2023-07-29T12:13:56;17.20;;;16.60;;
2622;SDS011;1321;48.690;9.022;2023-07-29T12:16:24;16.83;;;16.23;;
2622;SDS011;1321;48.690;9.022;2023-07-29T12:18:52;17.80;;;17.10;;
2622;SDS011;1321;48.690;9.022;2023-07-29T12:21:20;16.20;;;15.70;;
2622;SDS011;1321;48.690;9.022;2023-07-29T12:23:50;16.47;;;15.97;;
2622;SDS011;1321;48.690;9.022;2023-07-29T12:26:19;17.67;;;17.07;;
2622;SDS011;1321;48.690;9.022;2023-07-29T12:28:47;15.97;;;15.47;;
2622;SDS011;1321;48.690;9.022;2023-07-29T12:34:17;16.70;;;16.10;;
2622;SDS011;1321;48.690;9.022;2023-07-29T12:36:49;16.60;;;16.10;;
2622;SDS011;1321;48.690;9.022;2023-07-29T12:39:22;16.60;;;16.10;;
2622;SDS011;1321;48.690;9.022;2023-07-29T12:41:52;17.60;;;16.90;;
2622;SDS011;1321;48.690;9.022;2023-07-29T12:44:29;16.60;;;16.00;;
2622;SDS011;1321;48.690;9.022;2023-07-29T12:47:03;16.67;;;16.17;;
2622;SDS011;1321;48.690;9.022;2023-07-29T12:49:42;17.17;;;16.57;;
2622;SDS011;1321;48.690;9.022;2023-07-29T12:52:38;16.63;;;16.03;;
2622;SDS011;1321;48.690;9.022;2023-07-29T12:55:09;16.27;;;15.67;;
2622;SDS011;1321;48.690;9.022;2023-07-29T12:57:43;16.23;;;15.70;;
2622;SDS011;1321;48.690;9.022;2023-07-29T13:00:15;16.43;;;15.93;;
2622;SDS011;1321;48.690;9.022;2023-07-29T13:02:45;16.53;;;15.93;;
2622;SDS011;1321;48.690;9.022;2023-07-29T13:05:19;16.70;;;16.10;;
2622;SDS011;1321;48.690;9.022;2023-07-29T13:07:47;16.30;;;15.80;;
2622;SDS011;1321;48.690;9.022;2023-07-29T13:10:25;16.87;;;16.27;;
2622;SDS011;1321;48.690;9.022;2023-07-29T13:13:07;17.20;;;16.50;;
2622;SDS011;1321;48.690;9.022;2023-07-29T13:15:35;17.30;;;16.57;;
2622;SDS011;1321;48.690;9.022;2023-07-29T13:18:05;16.50;;;16.00;;
2622;SDS011;1321;48.690;9.022;2023-07-29T13:20:34;16.90;;;16.30;;
2622;SDS011;1321;48.690;9.022;2023-07-29T13:23:04;17.30;;;16.50;;
2622;SDS011;1321;48.690;9.022;2023-07-29T13:25:34;16.30;;;15.80;;
2622;SDS011;1321;48.690;9.022;2023-07-29T13:30:45;15.57;;;15.07;;
2622;SDS011;1321;48.690;9.022;2023-07-29T13:33:15;15.67;;;15.17;;
2622;SDS011;1321;48.690;9.022;2023-07-29T13:35:44;15.60;;;15.00;;
2622;SDS011;1321;48.690;9.022;2023-07-29T13:38:12;15.17;;;14.70;;
2622;SDS011;1321;48.690;9.022;2023-07-29T13:40:48;15.50;;;15.00;;
2622;SDS011;1321;48.690;9.022;2023-07-29T13:43:23;15.70;;;15.20;;
2622;SDS011;1321;48.690;9.022;2023-07-29T13:46:12;15.80;;;15.20;;
2622;SDS011;1321;48.690;9.022;2023-07-29T13:48:41;15.43;;;14.93;;
2622;SDS011;1321;48.690;9.022;2023-07-29T13:51:12;15.50;;;15.00;;
2622;SDS011;1321;48.690;9.022;2023-07-29T13:53:41;15.10;;;14.70;;
2622;SDS011;1321;48.690;9.022;2023-07-29T13:56:09;15.77;;;15.33;;
2622;SDS011;1321;48.690;9.022;2023-07-29T13:58:37;15.80;;;15.30;;
2622;SDS011;1321;48.690;9.022;2023-07-29T14:01:06;16.13;;;15.63;;
2622;SDS011;1321;48.690;9.022;2023-07-29T14:03:34;16.60;;;16.00;;
2622;SDS011;1321;48.690;9.022;2023-07-29T14:06:04;16.03;;;15.53;;
2622;SDS011;1321;48.690;9.022;2023-07-29T14:08:32;15.70;;;15.20;;
2622;SDS011;1321;48.690;9.022;2023-07-29T14:11:01;16.13;;;15.43;;
2622;SDS011;1321;48.690;9.022;2023-07-29T14:13:29;16.30;;;15.70;;
2622;SDS011;1321;48.690;9.022;2023-07-29T14:15:59;15.90;;;15.40;;
2622;SDS011;1321;48.690;9.022;2023-07-29T14:18:28;16.00;;;15.50;;
2622;SDS011;1321;48.690;9.022;2023-07-29T14:20:57;15.97;;;15.47;;
2622;SDS011;1321;48.690;9.022;2023-07-29T14:23:34;16.17;;;15.47;;
2622;SDS011;1321;48.690;9.022;2023-07-29T14:26:10;15.70;;;15.10;;
2622;SDS011;1321;48.690;9.022;2023-07-29T14:28:52;15.83;;;15.30;;
2622;SDS011;1321;48.690;9.022;2023-07-29T14:31:21;16.30;;;15.80;;
2622;SDS011;1321;48.690;9.022;2023-07-29T14:33:59;15.80;;;15.30;;
2622;SDS011;1321;48.690;9.022;2023-07-29T14:36:27;16.00;;;15.50;;
2622;SDS011;1321;48.690;9.022;2023-07-29T14:38:57;16.20;;;15.70;;
2622;SDS011;1321;48.690;9.022;2023-07-29T14:41:25;15.67;;;15.10;;
2622;SDS011;1321;48.690;9.022;2023-07-29T14:43:53;16.23;;;15.73;;
2622;SDS011;1321;48.690;9.022;2023-07-29T14:46:21;15.93;;;15.43;;
2622;SDS011;1321;48.690;9.022;2023-07-29T14:48:49;15.93;;;15.43;;
2622;SDS011;1321;48.690;9.022;2023-07-29T14:51:24;16.00;;;15.50;;
2622;SDS011;1321;48.690;9.022;2023-07-29T14:53:52;16.90;;;16.27;;
2622;SDS011;1321;48.690;9.022;2023-07-29T14:56:22;15.77;;;15.27;;
2622;SDS011;1321;48.690;9.022;2023-07-29T14:58:50;15.50;;;15.00;;
2622;SDS011;1321;48.690;9.022;2023-07-29T15:01:18;15.13;;;14.63;;
2622;SDS011;1321;48.690;9.022;2023-07-29T15:03:48;15.00;;;14.50;;
2622;SDS011;1321;48.690;9.022;2023-07-29T15:06:16;15.33;;;14.83;;
2622;SDS011;1321;48.690;9.022;2023-07-29T15:08:45;15.50;;;14.90;;
2622;SDS011;1321;48.690;9.022;2023-07-29T15:11:13;16.00;;;15.30;;
2622;SDS011;1321;48.690;9.022;2023-07-29T15:13:52;16.20;;;15.50;;
2622;SDS011;1321;48.690;9.022;2023-07-29T15:16:22;16.70;;;16.10;;
2622;SDS011;1321;48.690;9.022;2023-07-29T15:18:52;15.70;;;15.23;;
2622;SDS011;1321;48.690;9.022;2023-07-29T15:28:44;16.00;;;15.33;;
2622;SDS011;1321;48.690;9.022;2023-07-29T15:31:13;16.30;;;15.60;;
2622;SDS011;1321;48.690;9.022;2023-07-29T15:33:41;15.10;;;14.63;;
2622;SDS011;1321;48.690;9.022;2023-07-29T15:36:09;15.40;;;14.90;;
2622;SDS011;1321;48.690;9.022;2023-07-29T15:39:36;14.60;;;14.20;;
2622;SDS011;1321;48.690;9.022;2023-07-29T15:42:08;15.87;;;15.27;;
2622;SDS011;1321;48.690;9.022;2023-07-29T15:44:40;15.00;;;14.60;;
2622;SDS011;1321;48.690;9.022;2023-07-29T15:47:11;15.70;;;15.30;;
2622;SDS011;1321;48.690;9.022;2023-07-29T15:49:42;15.80;;;15.30;;
2622;SDS011;1321;48.690;9.022;2023-07-29T15:52:10;16.40;;;15.70;;
2622;SDS011;1321;48.690;9.022;2023-07-29T15:54:41;15.87;;;15.37;;
2622;SDS011;1321;48.690;9.022;2023-07-29T15:57:10;14.50;;;14.10;;
2622;SDS011;1321;48.690;9.022;2023-07-29T15:59:40;15.70;;;15.20;;